sensor_id;sensor_type;location;lat;lon;timestamp;P1;durP1;ratioP1;P2;durP2;ratioP2
59854;SDS011;45732;52.850;6.896;2023-02-03T00:01:43;12.07;;;2.38;;
59854;SDS011;45732;52.850;6.896;2023-02-03T00:04:08;10.95;;;2.78;;
59854;SDS011;45732;52.850;6.896;2023-02-03T00:06:34;13.45;;;2.75;;
59854;SDS011;45732;52.850;6.896;2023-02-03T00:09:00;11.00;;;2.83;;
59854;SDS011;45732;52.850;6.896;2023-02-03T00:11:28;8.57;;;2.67;;
59854;SDS011;45732;52.850;6.896;2023-02-03T00:13:54;9.05;;;2.60;;
59854;SDS011;45732;52.850;6.896;2023-02-03T00:16:20;9.80;;;2.63;;
59854;SDS011;45732;52.850;6.896;2023-02-03T00:18:46;12.13;;;2.47;;
59854;SDS011;45732;52.850;6.896;2023-02-03T00:21:11;10.82;;;2.35;;
59854;SDS011;45732;52.850;6.896;2023-02-03T00:23:39;11.18;;;2.35;;
59854;SDS011;45732;52.850;6.896;2023-02-03T00:26:09;7.22;;;2.22;;
59854;SDS011;45732;52.850;6.896;2023-02-03T00:28:36;7.53;;;2.70;;
59854;SDS011;45732;52.850;6.896;2023-02-03T00:31:02;10.55;;;3.10;;
59854;SDS011;45732;52.850;6.896;2023-02-03T00:33:28;9.07;;;1.80;;
59854;SDS011;45732;52.850;6.896;2023-02-03T00:35:54;8.65;;;2.10;;
59854;SDS011;45732;52.850;6.896;2023-02-03T00:38:19;10.77;;;2.13;;
59854;SDS011;45732;52.850;6.896;2023-02-03T00:40:52;12.95;;;2.20;;
59854;SDS011;45732;52.850;6.896;2023-02-03T00:43:18;9.57;;;2.50;;
59854;SDS011;45732;52.850;6.896;2023-02-03T00:45:44;9.55;;;2.22;;
59854;SDS011;45732;52.850;6.896;2023-02-03T00:48:10;12.15;;;2.60;;
59854;SDS011;45732;52.850;6.896;2023-02-03T00:50:36;8.55;;;2.30;;
59854;SDS011;45732;52.850;6.896;2023-02-03T00:53:02;10.40;;;2.45;;
59854;SDS011;45732;52.850;6.896;2023-02-03T00:55:27;8.95;;;2.10;;
59854;SDS011;45732;52.850;6.896;2023-02-03T00:57:53;11.48;;;3.08;;
59854;SDS011;45732;52.850;6.896;2023-02-03T01:00:19;8.30;;;2.33;;
59854;SDS011;45732;52.850;6.896;2023-02-03T01:02:45;11.98;;;2.78;;
59854;SDS011;45732;52.850;6.896;2023-02-03T01:05:11;10.48;;;2.70;;
59854;SDS011;45732;52.850;6.896;2023-02-03T01:07:37;11.27;;;3.42;;
59854;SDS011;45732;52.850;6.896;2023-02-03T01:10:03;13.43;;;3.42;;
59854;SDS011;45732;52.850;6.896;2023-02-03T01:12:30;14.18;;;3.85;;
59854;SDS011;45732;52.850;6.896;2023-02-03T01:14:56;12.48;;;3.67;;
59854;SDS011;45732;52.850;6.896;2023-02-03T01:17:22;12.98;;;3.78;;
59854;SDS011;45732;52.850;6.896;2023-02-03T01:19:49;12.23;;;4.05;;
59854;SDS011;45732;52.850;6.896;2023-02-03T01:22:16;9.75;;;3.58;;
59854;SDS011;45732;52.850;6.896;2023-02-03T01:24:41;12.73;;;3.83;;
59854;SDS011;45732;52.850;6.896;2023-02-03T01:27:07;10.93;;;3.72;;
59854;SDS011;45732;52.850;6.896;2023-02-03T01:29:33;13.63;;;4.00;;
59854;SDS011;45732;52.850;6.896;2023-02-03T01:31:59;11.20;;;3.58;;
59854;SDS011;45732;52.850;6.896;2023-02-03T01:34:24;10.70;;;3.75;;
59854;SDS011;45732;52.850;6.896;2023-02-03T01:36:50;12.73;;;4.18;;
59854;SDS011;45732;52.850;6.896;2023-02-03T01:39:16;15.23;;;3.63;;
59854;SDS011;45732;52.850;6.896;2023-02-03T01:41:41;14.70;;;4.10;;
59854;SDS011;45732;52.850;6.896;2023-02-03T01:46:58;11.15;;;3.40;;
59854;SDS011;45732;52.850;6.896;2023-02-03T01:49:26;14.70;;;3.88;;
59854;SDS011;45732;52.850;6.896;2023-02-03T01:51:55;14.60;;;3.97;;
59854;SDS011;45732;52.850;6.896;2023-02-03T01:54:22;12.10;;;3.65;;
59854;SDS011;45732;52.850;6.896;2023-02-03T01:57:03;10.70;;;2.85;;
59854;SDS011;45732;52.850;6.896;2023-02-03T01:59:35;14.68;;;3.40;;
59854;SDS011;45732;52.850;6.896;2023-02-03T02:02:02;13.93;;;3.47;;
59854;SDS011;45732;52.850;6.896;2023-02-03T02:04:41;13.95;;;3.42;;
59854;SDS011;45732;52.850;6.896;2023-02-03T02:07:14;11.27;;;3.00;;
59854;SDS011;45732;52.850;6.896;2023-02-03T02:09:40;14.55;;;3.38;;
59854;SDS011;45732;52.850;6.896;2023-02-03T02:12:08;15.07;;;3.60;;
59854;SDS011;45732;52.850;6.896;2023-02-03T02:14:35;13.30;;;3.60;;
59854;SDS011;45732;52.850;6.896;2023-02-03T02:17:12;16.33;;;3.50;;
59854;SDS011;45732;52.850;6.896;2023-02-03T02:33:42;13.88;;;3.38;;
59854;SDS011;45732;52.850;6.896;2023-02-03T02:36:33;11.00;;;3.08;;
59854;SDS011;45732;52.850;6.896;2023-02-03T02:45:26;13.32;;;4.05;;
59854;SDS011;45732;52.850;6.896;2023-02-03T02:47:55;12.55;;;3.20;;
59854;SDS011;45732;52.850;6.896;2023-02-03T02:50:30;13.00;;;3.00;;
59854;SDS011;45732;52.850;6.896;2023-02-03T02:53:01;8.90;;;2.42;;
59854;SDS011;45732;52.850;6.896;2023-02-03T02:55:30;14.30;;;3.30;;
59854;SDS011;45732;52.850;6.896;2023-02-03T02:58:06;12.45;;;3.05;;
59854;SDS011;45732;52.850;6.896;2023-02-03T03:00:35;13.65;;;3.22;;
59854;SDS011;45732;52.850;6.896;2023-02-03T03:03:06;13.70;;;3.42;;
59854;SDS011;45732;52.850;6.896;2023-02-03T03:05:51;14.25;;;3.00;;
59854;SDS011;45732;52.850;6.896;2023-02-03T03:08:34;14.65;;;3.10;;
59854;SDS011;45732;52.850;6.896;2023-02-03T03:11:05;11.57;;;2.83;;
59854;SDS011;45732;52.850;6.896;2023-02-03T03:13:32;13.05;;;3.03;;
59854;SDS011;45732;52.850;6.896;2023-02-03T03:16:02;12.65;;;3.10;;
59854;SDS011;45732;52.850;6.896;2023-02-03T03:18:39;12.32;;;2.90;;
59854;SDS011;45732;52.850;6.896;2023-02-03T03:21:08;13.32;;;2.90;;
59854;SDS011;45732;52.850;6.896;2023-02-03T03:23:39;11.50;;;2.90;;
59854;SDS011;45732;52.850;6.896;2023-02-03T03:28:48;8.75;;;2.50;;
59854;SDS011;45732;52.850;6.896;2023-02-03T03:31:16;15.75;;;3.42;;
59854;SDS011;45732;52.850;6.896;2023-02-03T03:33:44;11.50;;;2.80;;
59854;SDS011;45732;52.850;6.896;2023-02-03T03:39:01;14.43;;;3.60;;
59854;SDS011;45732;52.850;6.896;2023-02-03T03:50:34;11.43;;;2.75;;
59854;SDS011;45732;52.850;6.896;2023-02-03T03:53:04;11.95;;;2.80;;
59854;SDS011;45732;52.850;6.896;2023-02-03T03:55:33;11.10;;;2.83;;
59854;SDS011;45732;52.850;6.896;2023-02-03T04:00:55;10.55;;;2.50;;
59854;SDS011;45732;52.850;6.896;2023-02-03T04:03:27;11.98;;;3.15;;
59854;SDS011;45732;52.850;6.896;2023-02-03T04:05:57;11.98;;;2.78;;
59854;SDS011;45732;52.850;6.896;2023-02-03T04:08:23;9.85;;;2.70;;
59854;SDS011;45732;52.850;6.896;2023-02-03T04:10:48;13.25;;;2.60;;
59854;SDS011;45732;52.850;6.896;2023-02-03T04:13:14;16.73;;;3.13;;
59854;SDS011;45732;52.850;6.896;2023-02-03T04:15:40;9.40;;;2.33;;
59854;SDS011;45732;52.850;6.896;2023-02-03T04:18:06;10.68;;;2.55;;
59854;SDS011;45732;52.850;6.896;2023-02-03T04:20:32;14.35;;;2.70;;
59854;SDS011;45732;52.850;6.896;2023-02-03T04:22:58;11.90;;;2.72;;
59854;SDS011;45732;52.850;6.896;2023-02-03T04:25:24;9.57;;;2.67;;
59854;SDS011;45732;52.850;6.896;2023-02-03T04:27:50;12.32;;;2.70;;
59854;SDS011;45732;52.850;6.896;2023-02-03T04:30:16;12.30;;;2.42;;
59854;SDS011;45732;52.850;6.896;2023-02-03T04:32:42;11.02;;;2.45;;
59854;SDS011;45732;52.850;6.896;2023-02-03T04:35:11;11.73;;;2.40;;
59854;SDS011;45732;52.850;6.896;2023-02-03T04:37:38;12.88;;;2.40;;
59854;SDS011;45732;52.850;6.896;2023-02-03T04:40:03;9.40;;;2.30;;
59854;SDS011;45732;52.850;6.896;2023-02-03T04:42:29;12.73;;;2.55;;
59854;SDS011;45732;52.850;6.896;2023-02-03T04:44:55;10.75;;;2.40;;
59854;SDS011;45732;52.850;6.896;2023-02-03T04:47:21;12.52;;;3.00;;
59854;SDS011;45732;52.850;6.896;2023-02-03T04:49:46;10.73;;;2.30;;
59854;SDS011;45732;52.850;6.896;2023-02-03T04:52:12;12.15;;;2.67;;
59854;SDS011;45732;52.850;6.896;2023-02-03T04:54:38;11.38;;;2.55;;
59854;SDS011;45732;52.850;6.896;2023-02-03T04:57:04;13.00;;;2.50;;
59854;SDS011;45732;52.850;6.896;2023-02-03T04:59:30;11.68;;;2.47;;
59854;SDS011;45732;52.850;6.896;2023-02-03T05:01:56;13.45;;;2.53;;
59854;SDS011;45732;52.850;6.896;2023-02-03T05:04:21;11.77;;;2.55;;
59854;SDS011;45732;52.850;6.896;2023-02-03T05:06:47;13.13;;;2.40;;
59854;SDS011;45732;52.850;6.896;2023-02-03T05:09:13;11.93;;;2.63;;
59854;SDS011;45732;52.850;6.896;2023-02-03T05:11:39;9.43;;;2.53;;
59854;SDS011;45732;52.850;6.896;2023-02-03T05:14:05;15.55;;;2.50;;
59854;SDS011;45732;52.850;6.896;2023-02-03T05:16:31;13.57;;;2.97;;
59854;SDS011;45732;52.850;6.896;2023-02-03T05:18:57;14.48;;;2.63;;
59854;SDS011;45732;52.850;6.896;2023-02-03T05:21:22;11.23;;;2.78;;
59854;SDS011;45732;52.850;6.896;2023-02-03T05:23:48;12.65;;;2.63;;
59854;SDS011;45732;52.850;6.896;2023-02-03T05:26:14;11.68;;;2.95;;
59854;SDS011;45732;52.850;6.896;2023-02-03T05:28:40;8.27;;;2.47;;
59854;SDS011;45732;52.850;6.896;2023-02-03T05:31:05;10.45;;;2.42;;
59854;SDS011;45732;52.850;6.896;2023-02-03T05:33:31;10.80;;;2.70;;
59854;SDS011;45732;52.850;6.896;2023-02-03T05:35:57;10.98;;;2.88;;
59854;SDS011;45732;52.850;6.896;2023-02-03T05:38:23;12.77;;;2.70;;
59854;SDS011;45732;52.850;6.896;2023-02-03T05:40:49;14.32;;;2.95;;
59854;SDS011;45732;52.850;6.896;2023-02-03T05:43:34;9.05;;;2.47;;
59854;SDS011;45732;52.850;6.896;2023-02-03T05:46:01;11.80;;;2.97;;
59854;SDS011;45732;52.850;6.896;2023-02-03T05:48:27;8.80;;;2.40;;
59854;SDS011;45732;52.850;6.896;2023-02-03T05:50:53;12.10;;;3.00;;
59854;SDS011;45732;52.850;6.896;2023-02-03T05:53:19;12.50;;;4.03;;
59854;SDS011;45732;52.850;6.896;2023-02-03T05:55:45;12.45;;;2.80;;
59854;SDS011;45732;52.850;6.896;2023-02-03T05:58:10;13.63;;;2.65;;
59854;SDS011;45732;52.850;6.896;2023-02-03T06:00:36;10.82;;;2.70;;
59854;SDS011;45732;52.850;6.896;2023-02-03T06:03:02;12.30;;;2.80;;
59854;SDS011;45732;52.850;6.896;2023-02-03T06:05:29;9.43;;;2.35;;
59854;SDS011;45732;52.850;6.896;2023-02-03T06:07:56;12.25;;;2.63;;
59854;SDS011;45732;52.850;6.896;2023-02-03T06:10:22;9.68;;;3.13;;
59854;SDS011;45732;52.850;6.896;2023-02-03T06:12:48;13.65;;;2.88;;
59854;SDS011;45732;52.850;6.896;2023-02-03T06:15:14;13.60;;;3.08;;
59854;SDS011;45732;52.850;6.896;2023-02-03T06:17:42;13.55;;;2.70;;
59854;SDS011;45732;52.850;6.896;2023-02-03T06:20:10;11.07;;;3.00;;
59854;SDS011;45732;52.850;6.896;2023-02-03T06:22:36;13.55;;;3.28;;
59854;SDS011;45732;52.850;6.896;2023-02-03T06:25:02;13.30;;;3.47;;
59854;SDS011;45732;52.850;6.896;2023-02-03T06:27:28;11.35;;;3.20;;
59854;SDS011;45732;52.850;6.896;2023-02-03T06:29:54;10.75;;;3.20;;
59854;SDS011;45732;52.850;6.896;2023-02-03T06:32:20;10.52;;;3.17;;
59854;SDS011;45732;52.850;6.896;2023-02-03T06:34:46;11.75;;;3.40;;
59854;SDS011;45732;52.850;6.896;2023-02-03T06:37:11;11.90;;;3.10;;
59854;SDS011;45732;52.850;6.896;2023-02-03T06:39:37;13.68;;;3.40;;
59854;SDS011;45732;52.850;6.896;2023-02-03T06:42:03;12.60;;;2.97;;
59854;SDS011;45732;52.850;6.896;2023-02-03T06:44:28;9.65;;;2.97;;
59854;SDS011;45732;52.850;6.896;2023-02-03T06:46:54;10.88;;;3.40;;
59854;SDS011;45732;52.850;6.896;2023-02-03T06:49:20;14.57;;;2.97;;
59854;SDS011;45732;52.850;6.896;2023-02-03T06:51:46;10.80;;;3.30;;
59854;SDS011;45732;52.850;6.896;2023-02-03T06:54:12;12.52;;;3.10;;
59854;SDS011;45732;52.850;6.896;2023-02-03T06:56:38;14.63;;;3.25;;
59854;SDS011;45732;52.850;6.896;2023-02-03T06:59:04;12.07;;;3.70;;
59854;SDS011;45732;52.850;6.896;2023-02-03T07:01:29;15.68;;;3.42;;
59854;SDS011;45732;52.850;6.896;2023-02-03T07:03:56;12.45;;;3.15;;
59854;SDS011;45732;52.850;6.896;2023-02-03T07:06:26;10.32;;;3.35;;
59854;SDS011;45732;52.850;6.896;2023-02-03T07:08:54;12.85;;;2.97;;
59854;SDS011;45732;52.850;6.896;2023-02-03T07:11:20;13.27;;;2.90;;
59854;SDS011;45732;52.850;6.896;2023-02-03T07:13:47;17.38;;;3.13;;
59854;SDS011;45732;52.850;6.896;2023-02-03T07:16:12;18.20;;;4.30;;
59854;SDS011;45732;52.850;6.896;2023-02-03T07:18:38;12.68;;;3.00;;
59854;SDS011;45732;52.850;6.896;2023-02-03T07:21:04;11.13;;;2.80;;
59854;SDS011;45732;52.850;6.896;2023-02-03T07:23:31;13.27;;;3.53;;
59854;SDS011;45732;52.850;6.896;2023-02-03T07:26:00;17.55;;;3.28;;
59854;SDS011;45732;52.850;6.896;2023-02-03T07:28:28;16.88;;;3.83;;
59854;SDS011;45732;52.850;6.896;2023-02-03T07:30:55;14.02;;;3.13;;
59854;SDS011;45732;52.850;6.896;2023-02-03T07:33:20;14.30;;;3.45;;
59854;SDS011;45732;52.850;6.896;2023-02-03T07:35:58;10.57;;;3.08;;
59854;SDS011;45732;52.850;6.896;2023-02-03T07:38:25;14.02;;;3.83;;
59854;SDS011;45732;52.850;6.896;2023-02-03T07:40:51;16.35;;;4.20;;
59854;SDS011;45732;52.850;6.896;2023-02-03T07:43:17;13.30;;;3.80;;
59854;SDS011;45732;52.850;6.896;2023-02-03T07:45:43;15.23;;;3.83;;
59854;SDS011;45732;52.850;6.896;2023-02-03T07:48:09;16.23;;;4.05;;
59854;SDS011;45732;52.850;6.896;2023-02-03T07:50:35;17.67;;;4.70;;
59854;SDS011;45732;52.850;6.896;2023-02-03T07:53:01;17.75;;;4.25;;
59854;SDS011;45732;52.850;6.896;2023-02-03T07:55:28;21.27;;;4.05;;
59854;SDS011;45732;52.850;6.896;2023-02-03T07:57:54;16.95;;;4.32;;
59854;SDS011;45732;52.850;6.896;2023-02-03T08:00:20;14.45;;;4.35;;
59854;SDS011;45732;52.850;6.896;2023-02-03T08:02:47;16.70;;;4.30;;
59854;SDS011;45732;52.850;6.896;2023-02-03T08:05:13;16.90;;;4.55;;
59854;SDS011;45732;52.850;6.896;2023-02-03T08:07:39;17.75;;;4.32;;
59854;SDS011;45732;52.850;6.896;2023-02-03T08:10:05;14.05;;;3.80;;
59854;SDS011;45732;52.850;6.896;2023-02-03T08:12:32;18.20;;;4.55;;
59854;SDS011;45732;52.850;6.896;2023-02-03T08:14:58;17.02;;;4.30;;
59854;SDS011;45732;52.850;6.896;2023-02-03T08:17:24;18.30;;;4.22;;
59854;SDS011;45732;52.850;6.896;2023-02-03T08:19:50;14.85;;;4.00;;
59854;SDS011;45732;52.850;6.896;2023-02-03T08:22:16;19.20;;;4.50;;
59854;SDS011;45732;52.850;6.896;2023-02-03T08:24:42;18.88;;;4.63;;
59854;SDS011;45732;52.850;6.896;2023-02-03T08:27:18;17.98;;;4.43;;
59854;SDS011;45732;52.850;6.896;2023-02-03T08:29:45;12.73;;;4.20;;
59854;SDS011;45732;52.850;6.896;2023-02-03T08:32:13;18.52;;;3.95;;
59854;SDS011;45732;52.850;6.896;2023-02-03T08:34:40;15.30;;;4.55;;
59854;SDS011;45732;52.850;6.896;2023-02-03T08:37:06;17.80;;;4.07;;
59854;SDS011;45732;52.850;6.896;2023-02-03T08:39:33;20.52;;;4.25;;
59854;SDS011;45732;52.850;6.896;2023-02-03T08:41:59;16.33;;;4.18;;
59854;SDS011;45732;52.850;6.896;2023-02-03T08:44:25;15.93;;;4.00;;
59854;SDS011;45732;52.850;6.896;2023-02-03T08:46:51;15.25;;;3.95;;
59854;SDS011;45732;52.850;6.896;2023-02-03T08:49:17;16.50;;;4.47;;
59854;SDS011;45732;52.850;6.896;2023-02-03T08:51:44;16.80;;;3.75;;
59854;SDS011;45732;52.850;6.896;2023-02-03T08:54:11;15.38;;;4.10;;
59854;SDS011;45732;52.850;6.896;2023-02-03T08:56:37;13.15;;;3.90;;
59854;SDS011;45732;52.850;6.896;2023-02-03T08:59:03;19.73;;;4.43;;
59854;SDS011;45732;52.850;6.896;2023-02-03T09:01:29;18.33;;;4.78;;
59854;SDS011;45732;52.850;6.896;2023-02-03T09:03:55;20.20;;;4.30;;
59854;SDS011;45732;52.850;6.896;2023-02-03T09:06:21;21.08;;;4.57;;
59854;SDS011;45732;52.850;6.896;2023-02-03T09:08:47;19.85;;;5.47;;
59854;SDS011;45732;52.850;6.896;2023-02-03T09:11:14;14.05;;;3.92;;
59854;SDS011;45732;52.850;6.896;2023-02-03T09:13:42;19.25;;;4.45;;
59854;SDS011;45732;52.850;6.896;2023-02-03T09:16:12;16.88;;;4.10;;
59854;SDS011;45732;52.850;6.896;2023-02-03T09:18:41;17.73;;;4.32;;
59854;SDS011;45732;52.850;6.896;2023-02-03T09:21:08;23.98;;;4.88;;
59854;SDS011;45732;52.850;6.896;2023-02-03T09:23:35;25.55;;;5.05;;
59854;SDS011;45732;52.850;6.896;2023-02-03T09:26:02;16.10;;;4.10;;
59854;SDS011;45732;52.850;6.896;2023-02-03T09:28:28;19.85;;;4.95;;
59854;SDS011;45732;52.850;6.896;2023-02-03T09:30:58;18.95;;;4.63;;
59854;SDS011;45732;52.850;6.896;2023-02-03T09:33:27;19.17;;;4.25;;
59854;SDS011;45732;52.850;6.896;2023-02-03T09:35:54;24.63;;;5.00;;
59854;SDS011;45732;52.850;6.896;2023-02-03T09:38:21;22.35;;;4.80;;
59854;SDS011;45732;52.850;6.896;2023-02-03T09:40:58;20.02;;;4.72;;
59854;SDS011;45732;52.850;6.896;2023-02-03T09:43:39;26.40;;;5.55;;
59854;SDS011;45732;52.850;6.896;2023-02-03T09:46:13;22.05;;;4.65;;
59854;SDS011;45732;52.850;6.896;2023-02-03T09:48:46;25.73;;;5.28;;
59854;SDS011;45732;52.850;6.896;2023-02-03T09:51:21;19.58;;;4.50;;
59854;SDS011;45732;52.850;6.896;2023-02-03T09:53:56;23.38;;;4.95;;
59854;SDS011;45732;52.850;6.896;2023-02-03T09:56:49;24.85;;;5.03;;
59854;SDS011;45732;52.850;6.896;2023-02-03T09:59:19;22.77;;;5.07;;
59854;SDS011;45732;52.850;6.896;2023-02-03T10:06:52;22.67;;;4.78;;
59854;SDS011;45732;52.850;6.896;2023-02-03T10:14:29;25.45;;;4.78;;
59854;SDS011;45732;52.850;6.896;2023-02-03T10:19:41;23.60;;;4.85;;
59854;SDS011;45732;52.850;6.896;2023-02-03T10:22:39;23.45;;;5.40;;
59854;SDS011;45732;52.850;6.896;2023-02-03T10:25:23;23.17;;;5.70;;
59854;SDS011;45732;52.850;6.896;2023-02-03T10:27:56;24.67;;;4.63;;
59854;SDS011;45732;52.850;6.896;2023-02-03T10:30:26;28.35;;;5.50;;
59854;SDS011;45732;52.850;6.896;2023-02-03T10:33:08;24.30;;;5.03;;
59854;SDS011;45732;52.850;6.896;2023-02-03T10:38:20;28.58;;;5.18;;
59854;SDS011;45732;52.850;6.896;2023-02-03T10:40:48;29.40;;;5.38;;
59854;SDS011;45732;52.850;6.896;2023-02-03T10:43:14;23.13;;;4.63;;
59854;SDS011;45732;52.850;6.896;2023-02-03T10:45:58;23.65;;;4.65;;
59854;SDS011;45732;52.850;6.896;2023-02-03T10:48:24;27.30;;;4.85;;
59854;SDS011;45732;52.850;6.896;2023-02-03T10:50:51;23.02;;;5.00;;
59854;SDS011;45732;52.850;6.896;2023-02-03T10:53:25;27.98;;;4.90;;
59854;SDS011;45732;52.850;6.896;2023-02-03T10:56:00;25.63;;;5.10;;
59854;SDS011;45732;52.850;6.896;2023-02-03T10:58:30;24.80;;;5.10;;
59854;SDS011;45732;52.850;6.896;2023-02-03T11:01:11;26.55;;;5.93;;
59854;SDS011;45732;52.850;6.896;2023-02-03T11:03:43;21.00;;;4.47;;
59854;SDS011;45732;52.850;6.896;2023-02-03T11:06:18;26.00;;;5.65;;
59854;SDS011;45732;52.850;6.896;2023-02-03T11:08:45;30.33;;;5.32;;
59854;SDS011;45732;52.850;6.896;2023-02-03T11:11:33;27.88;;;5.32;;
59854;SDS011;45732;52.850;6.896;2023-02-03T11:16:29;34.17;;;6.20;;
59854;SDS011;45732;52.850;6.896;2023-02-03T11:18:58;25.17;;;5.82;;
59854;SDS011;45732;52.850;6.896;2023-02-03T11:24:02;30.15;;;5.78;;
59854;SDS011;45732;52.850;6.896;2023-02-03T11:26:46;28.40;;;5.18;;
59854;SDS011;45732;52.850;6.896;2023-02-03T11:29:27;25.17;;;5.43;;
59854;SDS011;45732;52.850;6.896;2023-02-03T11:31:59;28.20;;;6.10;;
59854;SDS011;45732;52.850;6.896;2023-02-03T11:35:02;26.73;;;5.97;;
59854;SDS011;45732;52.850;6.896;2023-02-03T11:37:39;30.42;;;6.53;;
59854;SDS011;45732;52.850;6.896;2023-02-03T11:42:33;35.97;;;6.30;;
59854;SDS011;45732;52.850;6.896;2023-02-03T11:48:23;26.15;;;5.60;;
59854;SDS011;45732;52.850;6.896;2023-02-03T12:02:25;30.13;;;5.65;;
59854;SDS011;45732;52.850;6.896;2023-02-03T12:19:04;30.85;;;6.38;;
59854;SDS011;45732;52.850;6.896;2023-02-03T12:24:18;31.40;;;5.90;;
59854;SDS011;45732;52.850;6.896;2023-02-03T12:27:04;33.47;;;7.18;;
59854;SDS011;45732;52.850;6.896;2023-02-03T12:29:38;26.70;;;6.05;;
59854;SDS011;45732;52.850;6.896;2023-02-03T12:34:40;25.80;;;5.57;;
59854;SDS011;45732;52.850;6.896;2023-02-03T12:37:24;32.22;;;7.15;;
59854;SDS011;45732;52.850;6.896;2023-02-03T12:40:17;29.77;;;6.75;;
59854;SDS011;45732;52.850;6.896;2023-02-03T12:42:58;26.63;;;5.28;;
59854;SDS011;45732;52.850;6.896;2023-02-03T12:45:36;26.80;;;5.68;;
59854;SDS011;45732;52.850;6.896;2023-02-03T12:48:05;29.02;;;5.85;;
59854;SDS011;45732;52.850;6.896;2023-02-03T12:51:11;21.63;;;5.35;;
59854;SDS011;45732;52.850;6.896;2023-02-03T12:53:32;25.42;;;5.45;;
59854;SDS011;45732;52.850;6.896;2023-02-03T12:56:04;28.92;;;5.60;;
59854;SDS011;45732;52.850;6.896;2023-02-03T13:09:28;28.50;;;4.95;;
59854;SDS011;45732;52.850;6.896;2023-02-03T13:14:34;28.80;;;5.15;;
59854;SDS011;45732;52.850;6.896;2023-02-03T13:17:24;26.45;;;6.28;;
59854;SDS011;45732;52.850;6.896;2023-02-03T13:20:04;26.90;;;5.13;;
59854;SDS011;45732;52.850;6.896;2023-02-03T13:22:39;33.58;;;5.57;;
59854;SDS011;45732;52.850;6.896;2023-02-03T13:35:49;29.25;;;5.82;;
59854;SDS011;45732;52.850;6.896;2023-02-03T13:43:44;22.73;;;5.30;;
59854;SDS011;45732;52.850;6.896;2023-02-03T13:46:24;23.38;;;6.03;;
59854;SDS011;45732;52.850;6.896;2023-02-03T13:48:53;27.42;;;5.25;;
59854;SDS011;45732;52.850;6.896;2023-02-03T13:51:22;23.67;;;5.32;;
59854;SDS011;45732;52.850;6.896;2023-02-03T13:53:57;30.50;;;5.35;;
59854;SDS011;45732;52.850;6.896;2023-02-03T13:56:29;29.27;;;6.40;;
59854;SDS011;45732;52.850;6.896;2023-02-03T14:01:52;30.85;;;5.75;;
59854;SDS011;45732;52.850;6.896;2023-02-03T14:20:36;29.80;;;5.90;;
59854;SDS011;45732;52.850;6.896;2023-02-03T14:23:12;27.50;;;5.50;;
59854;SDS011;45732;52.850;6.896;2023-02-03T14:25:56;21.25;;;4.75;;
59854;SDS011;45732;52.850;6.896;2023-02-03T14:28:27;22.60;;;4.78;;
59854;SDS011;45732;52.850;6.896;2023-02-03T14:38:51;27.08;;;4.88;;
59854;SDS011;45732;52.850;6.896;2023-02-03T14:41:21;24.67;;;5.93;;
59854;SDS011;45732;52.850;6.896;2023-02-03T14:44:19;25.38;;;5.82;;
59854;SDS011;45732;52.850;6.896;2023-02-03T14:55:10;23.38;;;5.43;;
59854;SDS011;45732;52.850;6.896;2023-02-03T14:57:51;22.50;;;4.40;;
59854;SDS011;45732;52.850;6.896;2023-02-03T15:05:40;26.08;;;5.03;;
59854;SDS011;45732;52.850;6.896;2023-02-03T15:10:55;26.58;;;4.93;;
59854;SDS011;45732;52.850;6.896;2023-02-03T15:15:55;21.55;;;4.60;;
59854;SDS011;45732;52.850;6.896;2023-02-03T15:21:00;22.95;;;4.90;;
59854;SDS011;45732;52.850;6.896;2023-02-03T15:23:30;17.90;;;3.83;;
59854;SDS011;45732;52.850;6.896;2023-02-03T15:26:16;19.13;;;3.72;;
59854;SDS011;45732;52.850;6.896;2023-02-03T15:29:01;19.98;;;4.90;;
59854;SDS011;45732;52.850;6.896;2023-02-03T15:31:38;19.83;;;4.05;;
59854;SDS011;45732;52.850;6.896;2023-02-03T15:34:35;18.40;;;4.05;;
59854;SDS011;45732;52.850;6.896;2023-02-03T15:37:07;18.17;;;4.07;;
59854;SDS011;45732;52.850;6.896;2023-02-03T15:43:00;24.50;;;4.55;;
59854;SDS011;45732;52.850;6.896;2023-02-03T15:45:31;22.17;;;4.70;;
59854;SDS011;45732;52.850;6.896;2023-02-03T15:50:52;18.88;;;3.67;;
59854;SDS011;45732;52.850;6.896;2023-02-03T15:53:57;21.55;;;4.28;;
59854;SDS011;45732;52.850;6.896;2023-02-03T15:56:32;20.42;;;3.83;;
59854;SDS011;45732;52.850;6.896;2023-02-03T15:59:05;23.77;;;4.05;;
59854;SDS011;45732;52.850;6.896;2023-02-03T16:01:48;20.67;;;4.20;;
59854;SDS011;45732;52.850;6.896;2023-02-03T16:04:15;23.35;;;4.40;;
59854;SDS011;45732;52.850;6.896;2023-02-03T16:06:44;17.00;;;4.07;;
59854;SDS011;45732;52.850;6.896;2023-02-03T16:09:31;21.17;;;4.22;;
59854;SDS011;45732;52.850;6.896;2023-02-03T16:12:04;20.13;;;4.30;;
59854;SDS011;45732;52.850;6.896;2023-02-03T16:14:49;19.15;;;3.80;;
59854;SDS011;45732;52.850;6.896;2023-02-03T16:19:47;21.55;;;4.50;;
59854;SDS011;45732;52.850;6.896;2023-02-03T16:22:28;19.65;;;3.72;;
59854;SDS011;45732;52.850;6.896;2023-02-03T16:24:57;24.10;;;4.32;;
59854;SDS011;45732;52.850;6.896;2023-02-03T16:27:43;16.67;;;4.10;;
59854;SDS011;45732;52.850;6.896;2023-02-03T16:35:53;20.20;;;3.78;;
59854;SDS011;45732;52.850;6.896;2023-02-03T16:38:47;20.40;;;4.85;;
59854;SDS011;45732;52.850;6.896;2023-02-03T16:41:33;21.20;;;3.63;;
59854;SDS011;45732;52.850;6.896;2023-02-03T16:44:17;23.92;;;4.40;;
59854;SDS011;45732;52.850;6.896;2023-02-03T16:47:02;25.40;;;5.70;;
59854;SDS011;45732;52.850;6.896;2023-02-03T16:49:57;23.42;;;5.78;;
59854;SDS011;45732;52.850;6.896;2023-02-03T16:52:42;23.70;;;4.82;;
59854;SDS011;45732;52.850;6.896;2023-02-03T16:55:09;26.63;;;5.20;;
59854;SDS011;45732;52.850;6.896;2023-02-03T16:57:35;26.90;;;5.03;;
59854;SDS011;45732;52.850;6.896;2023-02-03T17:00:00;27.85;;;5.63;;
59854;SDS011;45732;52.850;6.896;2023-02-03T17:02:29;25.75;;;4.78;;
59854;SDS011;45732;52.850;6.896;2023-02-03T17:04:55;26.70;;;4.68;;
59854;SDS011;45732;52.850;6.896;2023-02-03T17:07:21;27.38;;;4.97;;
59854;SDS011;45732;52.850;6.896;2023-02-03T17:09:46;38.15;;;11.02;;
59854;SDS011;45732;52.850;6.896;2023-02-03T17:12:12;31.65;;;9.27;;
59854;SDS011;45732;52.850;6.896;2023-02-03T17:14:38;28.35;;;8.05;;
59854;SDS011;45732;52.850;6.896;2023-02-03T17:17:03;26.83;;;6.13;;
59854;SDS011;45732;52.850;6.896;2023-02-03T17:19:29;30.75;;;6.93;;
59854;SDS011;45732;52.850;6.896;2023-02-03T17:21:55;30.90;;;6.20;;
59854;SDS011;45732;52.850;6.896;2023-02-03T17:24:20;31.95;;;6.18;;
59854;SDS011;45732;52.850;6.896;2023-02-03T17:26:46;32.58;;;8.48;;
59854;SDS011;45732;52.850;6.896;2023-02-03T17:29:13;25.40;;;5.90;;
59854;SDS011;45732;52.850;6.896;2023-02-03T17:31:38;26.20;;;5.68;;
59854;SDS011;45732;52.850;6.896;2023-02-03T17:34:04;25.98;;;4.85;;
59854;SDS011;45732;52.850;6.896;2023-02-03T17:36:30;28.98;;;5.57;;
59854;SDS011;45732;52.850;6.896;2023-02-03T17:38:55;26.60;;;5.45;;
59854;SDS011;45732;52.850;6.896;2023-02-03T17:41:22;26.25;;;4.70;;
59854;SDS011;45732;52.850;6.896;2023-02-03T17:43:49;25.20;;;5.03;;
59854;SDS011;45732;52.850;6.896;2023-02-03T17:46:16;35.08;;;5.90;;
59854;SDS011;45732;52.850;6.896;2023-02-03T17:48:44;26.13;;;6.13;;
59854;SDS011;45732;52.850;6.896;2023-02-03T17:51:11;38.15;;;10.55;;
59854;SDS011;45732;52.850;6.896;2023-02-03T17:53:39;29.20;;;9.07;;
59854;SDS011;45732;52.850;6.896;2023-02-03T17:56:06;24.35;;;6.50;;
59854;SDS011;45732;52.850;6.896;2023-02-03T17:58:32;26.80;;;7.30;;
59854;SDS011;45732;52.850;6.896;2023-02-03T18:00:58;28.63;;;7.55;;
59854;SDS011;45732;52.850;6.896;2023-02-03T18:03:24;21.25;;;4.90;;